Time;durP1;ratioP1;P1;durP2;ratioP2;P2;SDS_P1;SDS_P2;PMS_P1;PMS_P2;Temp;Humidity;BMP_temperature;BMP_pressure;BME280_temperature;BME280_humidity;BME280_pressure;Samples;Min_cycle;Max_cycle;Signal;HPM_P1;HPM_P2
2023/08/05 00:00:50;;;;;;;5.35;2.28;;;15.40;99.90;;;;;;4962376;28;21446;-82
2023/08/05 00:03:15;;;;;;;3.72;2.25;;;15.40;99.90;;;;;;4961071;28;20077;-83
2023/08/05 00:05:41;;;;;;;3.40;1.90;;;15.40;99.90;;;;;;4959712;28;20092;-83
2023/08/05 00:08:06;;;;;;;3.95;2.65;;;15.40;99.90;;;;;;4960223;28;20030;-83
2023/08/05 00:10:32;;;;;;;5.75;2.30;;;15.40;99.90;;;;;;4961360;28;20039;-82
2023/08/05 00:12:58;;;;;;;2.60;1.88;;;15.30;99.90;;;;;;4960803;28;20043;-83
2023/08/05 00:15:23;;;;;;;5.13;1.98;;;15.40;99.90;;;;;;4961307;28;20065;-82
2023/08/05 00:17:49;;;;;;;3.65;2.15;;;15.40;99.90;;;;;;4960820;28;20102;-82
2023/08/05 00:20:14;;;;;;;7.38;2.60;;;15.40;99.90;;;;;;4961350;28;20041;-82
2023/08/05 00:22:40;;;;;;;6.28;2.10;;;15.40;99.90;;;;;;4959953;28;20035;-82
2023/08/05 00:25:06;;;;;;;3.20;1.95;;;15.40;99.90;;;;;;4961576;28;20035;-83
2023/08/05 00:27:31;;;;;;;3.55;2.05;;;15.40;99.90;;;;;;4959292;28;20035;-82
2023/08/05 00:29:57;;;;;;;4.55;1.90;;;15.40;99.90;;;;;;4961148;28;21305;-83
2023/08/05 00:32:23;;;;;;;4.60;2.30;;;15.40;99.90;;;;;;4961613;28;20113;-82
2023/08/05 00:34:48;;;;;;;6.68;2.35;;;15.40;99.90;;;;;;4960947;28;20208;-82
2023/08/05 00:37:14;;;;;;;5.50;2.42;;;15.40;99.90;;;;;;4961280;28;20070;-82
2023/08/05 00:39:39;;;;;;;5.05;2.45;;;15.40;99.90;;;;;;4960811;28;20026;-83
2023/08/05 00:42:05;;;;;;;4.00;1.98;;;15.40;99.90;;;;;;4964392;28;20023;-82
2023/08/05 00:44:31;;;;;;;3.72;2.20;;;15.40;99.90;;;;;;4964358;28;20030;-83
2023/08/05 00:46:57;;;;;;;3.67;2.40;;;15.40;99.90;;;;;;4964791;28;20042;-82
2023/08/05 00:49:23;;;;;;;5.65;2.30;;;15.40;99.90;;;;;;4965596;28;20043;-83
2023/08/05 00:51:49;;;;;;;6.22;2.67;;;15.40;99.90;;;;;;4965440;28;20045;-82
2023/08/05 00:54:15;;;;;;;3.63;2.20;;;15.40;99.90;;;;;;4965833;28;20433;-82
2023/08/05 00:56:43;;;;;;;6.03;2.38;;;15.40;99.90;;;;;;4964256;28;20035;-83
2023/08/05 00:59:09;;;;;;;3.90;2.25;;;15.40;99.90;;;;;;4965378;28;20035;-83
2023/08/05 01:01:35;;;;;;;3.83;2.30;;;15.40;99.90;;;;;;4965480;28;20031;-82
2023/08/05 01:04:00;;;;;;;2.88;2.30;;;15.40;99.90;;;;;;4965603;28;21533;-83
2023/08/05 01:06:28;;;;;;;6.63;2.85;;;15.40;99.90;;;;;;4964718;28;20031;-83
2023/08/05 01:08:55;;;;;;;4.82;2.13;;;15.40;99.90;;;;;;4965950;28;20023;-83
2023/08/05 01:11:22;;;;;;;5.00;2.60;;;15.40;99.90;;;;;;4964615;28;20030;-83
2023/08/05 01:13:47;;;;;;;7.00;2.60;;;15.40;99.90;;;;;;4965095;28;20092;-83
2023/08/05 01:16:13;;;;;;;4.45;2.45;;;15.40;99.90;;;;;;4966447;28;20026;-83
2023/08/05 01:18:40;;;;;;;7.90;2.35;;;15.40;99.90;;;;;;4965763;28;20022;-82
2023/08/05 01:21:18;;;;;;;5.18;2.70;;;15.40;99.90;;;;;;4965764;28;20024;-84
2023/08/05 01:23:44;;;;;;;7.68;2.70;;;15.40;99.90;;;;;;4966907;28;20119;-83
2023/08/05 01:26:10;;;;;;;5.00;2.53;;;15.40;99.90;;;;;;4965355;28;20070;-83
2023/08/05 01:28:37;;;;;;;6.18;3.10;;;15.40;99.90;;;;;;4965864;28;20031;-84
2023/08/05 01:31:04;;;;;;;8.15;2.80;;;15.40;99.90;;;;;;4966713;28;20110;-83
2023/08/05 01:33:31;;;;;;;3.90;2.65;;;15.40;99.90;;;;;;4964146;28;20043;-84
2023/08/05 01:35:56;;;;;;;4.93;2.50;;;15.30;99.90;;;;;;4962691;28;20038;-82
2023/08/05 01:38:22;;;;;;;3.88;2.20;;;15.40;99.90;;;;;;4962655;28;20019;-83
2023/08/05 01:40:47;;;;;;;4.97;2.47;;;15.30;99.90;;;;;;4962068;28;20689;-83
2023/08/05 01:43:13;;;;;;;3.45;2.47;;;15.30;99.90;;;;;;4966562;28;20081;-83
2023/08/05 01:45:39;;;;;;;3.95;2.55;;;15.40;99.90;;;;;;4960668;28;20027;-83
2023/08/05 01:48:04;;;;;;;6.22;2.72;;;15.30;99.90;;;;;;4961106;28;20425;-82
2023/08/05 01:50:30;;;;;;;3.97;2.63;;;15.30;99.90;;;;;;4961071;28;20141;-84
2023/08/05 01:52:56;;;;;;;5.28;2.78;;;15.30;99.90;;;;;;4961416;28;20150;-82
2023/08/05 01:55:21;;;;;;;6.20;2.30;;;15.30;99.90;;;;;;4964689;28;20049;-82
2023/08/05 01:57:47;;;;;;;4.80;2.38;;;15.30;99.90;;;;;;4962849;28;20031;-82
2023/08/05 02:00:13;;;;;;;3.47;2.53;;;15.30;99.90;;;;;;4964400;28;20467;-82
2023/08/05 02:02:38;;;;;;;4.07;2.35;;;15.30;99.90;;;;;;4963916;28;20045;-83
2023/08/05 02:05:04;;;;;;;3.42;2.53;;;15.20;99.90;;;;;;4964200;28;20023;-83
2023/08/05 02:07:29;;;;;;;8.05;2.45;;;15.20;99.90;;;;;;4963642;28;20034;-82
2023/08/05 02:09:55;;;;;;;4.68;2.58;;;15.20;99.90;;;;;;4963931;28;20038;-83
2023/08/05 02:12:20;;;;;;;4.07;2.30;;;15.20;99.90;;;;;;4963166;28;20023;-82
2023/08/05 02:14:46;;;;;;;3.13;2.03;;;15.20;99.90;;;;;;4963703;28;20120;-83
2023/08/05 02:17:11;;;;;;;2.90;1.92;;;15.20;99.90;;;;;;4963082;28;20050;-82
2023/08/05 02:19:37;;;;;;;4.38;1.80;;;15.10;99.90;;;;;;4964568;28;20034;-82
2023/08/05 02:22:03;;;;;;;3.30;2.00;;;15.10;99.90;;;;;;4964361;28;20045;-82
2023/08/05 02:24:28;;;;;;;3.17;1.65;;;15.10;99.90;;;;;;4962692;28;20874;-83
2023/08/05 02:26:54;;;;;;;2.85;1.60;;;15.10;99.90;;;;;;4961701;28;20884;-82
2023/08/05 02:29:19;;;;;;;3.45;1.60;;;15.10;99.90;;;;;;4962146;28;20514;-83
2023/08/05 02:31:45;;;;;;;3.28;1.90;;;15.10;99.90;;;;;;4961713;28;20208;-82
2023/08/05 02:34:10;;;;;;;2.95;1.50;;;15.10;99.90;;;;;;4963262;28;20041;-83
2023/08/05 02:36:36;;;;;;;2.33;1.55;;;15.10;99.90;;;;;;4962572;28;20126;-83
2023/08/05 02:39:01;;;;;;;2.42;1.58;;;15.10;99.90;;;;;;4963166;28;20068;-82
2023/08/05 02:41:27;;;;;;;3.33;1.50;;;15.10;99.90;;;;;;4963480;28;20113;-83
2023/08/05 02:43:52;;;;;;;3.25;1.60;;;15.10;99.90;;;;;;4964031;28;20027;-83
2023/08/05 02:46:18;;;;;;;3.60;1.55;;;15.10;99.90;;;;;;4963033;28;20050;-82
2023/08/05 02:48:43;;;;;;;3.03;1.60;;;15.10;99.90;;;;;;4962112;28;20031;-82
2023/08/05 02:51:09;;;;;;;2.78;1.95;;;15.10;99.90;;;;;;4962680;28;20036;-83
2023/08/05 02:53:34;;;;;;;3.58;1.90;;;15.10;99.90;;;;;;4963022;28;20092;-82
2023/08/05 02:56:00;;;;;;;3.15;2.10;;;15.10;99.90;;;;;;4963258;28;20038;-83
2023/08/05 02:58:26;;;;;;;3.38;2.17;;;15.10;99.90;;;;;;4962817;28;20430;-83
2023/08/05 03:00:52;;;;;;;4.38;2.78;;;15.10;99.90;;;;;;4962878;28;20030;-82
2023/08/05 03:03:17;;;;;;;2.75;2.17;;;15.10;99.90;;;;;;4962307;28;20054;-83
2023/08/05 03:05:43;;;;;;;5.50;2.40;;;15.10;99.90;;;;;;4963739;28;20038;-83
2023/08/05 03:08:10;;;;;;;4.60;2.50;;;15.10;99.90;;;;;;4962771;28;20860;-82
2023/08/05 03:10:37;;;;;;;4.43;2.80;;;15.10;99.90;;;;;;4964072;28;20057;-82
2023/08/05 03:13:03;;;;;;;2.92;2.45;;;15.00;99.90;;;;;;4962968;28;20128;-82
2023/08/05 03:15:29;;;;;;;4.85;2.60;;;15.00;99.90;;;;;;4963002;28;20026;-83
2023/08/05 03:17:54;;;;;;;3.75;2.60;;;15.00;99.90;;;;;;4963803;28;20031;-83
2023/08/05 03:20:30;;;;;;;3.75;2.80;;;15.00;99.90;;;;;;4964628;28;20481;-83
2023/08/05 03:22:56;;;;;;;4.18;2.67;;;15.00;99.90;;;;;;4964047;28;20038;-83
2023/08/05 03:25:23;;;;;;;4.63;2.88;;;15.00;99.90;;;;;;4963305;28;20173;-83
2023/08/05 03:27:49;;;;;;;3.45;2.70;;;15.00;99.90;;;;;;4962153;28;20066;-82
2023/08/05 03:30:16;;;;;;;3.55;2.60;;;15.00;99.90;;;;;;4964414;28;20058;-82
2023/08/05 03:32:41;;;;;;;4.25;2.63;;;15.00;99.90;;;;;;4963378;28;20026;-82
2023/08/05 03:35:07;;;;;;;5.28;2.78;;;15.00;99.90;;;;;;4964155;28;20031;-83
2023/08/05 03:37:33;;;;;;;5.00;2.75;;;15.00;99.90;;;;;;4962763;28;20114;-84
2023/08/05 03:39:58;;;;;;;4.40;2.50;;;15.00;99.90;;;;;;4962002;28;21468;-83
2023/08/05 03:42:24;;;;;;;3.92;2.60;;;15.00;99.90;;;;;;4962575;28;20027;-83
2023/08/05 03:44:49;;;;;;;3.45;2.40;;;15.00;99.90;;;;;;4962876;28;20106;-83
2023/08/05 03:47:15;;;;;;;3.15;2.30;;;15.00;99.90;;;;;;4960988;28;20154;-84
2023/08/05 03:49:41;;;;;;;3.55;2.53;;;15.00;99.90;;;;;;4960767;28;20023;-82
2023/08/05 03:52:07;;;;;;;3.33;2.40;;;15.00;99.90;;;;;;4962833;28;20035;-83
2023/08/05 03:54:32;;;;;;;7.32;2.70;;;15.00;99.90;;;;;;4961647;28;20085;-82
2023/08/05 03:56:59;;;;;;;3.67;2.70;;;15.00;99.90;;;;;;4960361;28;20538;-82
2023/08/05 03:59:25;;;;;;;4.28;3.17;;;14.90;99.90;;;;;;4962410;28;21367;-82
2023/08/05 04:01:51;;;;;;;4.20;2.65;;;14.90;99.90;;;;;;4960967;28;20050;-82
2023/08/05 04:04:16;;;;;;;4.70;2.90;;;14.90;99.90;;;;;;4961090;28;20127;-84
2023/08/05 04:06:42;;;;;;;3.97;3.05;;;14.90;99.90;;;;;;4960567;28;20430;-82
2023/08/05 04:09:07;;;;;;;3.97;2.90;;;14.90;99.90;;;;;;4961123;28;20027;-81
2023/08/05 04:11:33;;;;;;;3.97;3.17;;;14.90;99.90;;;;;;4961696;28;21057;-81
2023/08/05 04:13:59;;;;;;;4.68;3.22;;;14.90;99.90;;;;;;4959657;28;20049;-83
2023/08/05 04:16:27;;;;;;;5.43;3.40;;;14.90;99.90;;;;;;4963943;28;20432;-81
2023/08/05 04:18:52;;;;;;;4.55;3.53;;;14.80;99.90;;;;;;4964318;28;20030;-82
2023/08/05 04:21:19;;;;;;;4.35;3.63;;;14.80;99.90;;;;;;4964943;28;20031;-82
2023/08/05 04:23:46;;;;;;;16.05;3.95;;;14.80;99.90;;;;;;4964775;28;20082;-82
2023/08/05 04:26:12;;;;;;;6.20;3.67;;;14.80;99.90;;;;;;4965185;28;20042;-85
2023/08/05 04:28:38;;;;;;;7.57;3.70;;;14.70;99.90;;;;;;4965119;28;20042;-82
2023/08/05 04:31:04;;;;;;;4.55;3.80;;;14.70;99.90;;;;;;4963950;28;20225;-82
2023/08/05 04:33:31;;;;;;;5.47;3.45;;;14.70;99.90;;;;;;4965439;28;20069;-82
2023/08/05 04:35:57;;;;;;;6.65;4.20;;;14.70;99.90;;;;;;4964472;28;20391;-83
2023/08/05 04:38:23;;;;;;;6.63;4.30;;;14.70;99.90;;;;;;4963452;28;20042;-83
2023/08/05 04:40:49;;;;;;;7.00;4.60;;;14.70;99.90;;;;;;4963092;28;20059;-83
2023/08/05 04:43:16;;;;;;;5.43;4.18;;;14.70;99.90;;;;;;4963505;28;20123;-83
2023/08/05 04:45:42;;;;;;;4.95;4.43;;;14.70;99.90;;;;;;4963080;28;20027;-83
2023/08/05 04:48:08;;;;;;;6.15;4.28;;;14.70;99.90;;;;;;4962779;28;20076;-83
2023/08/05 04:50:40;;;;;;;5.97;4.20;;;14.70;99.90;;;;;;4961938;28;20756;-83
2023/08/05 04:53:06;;;;;;;4.90;4.35;;;14.70;99.90;;;;;;4963748;28;20104;-83
2023/08/05 04:55:32;;;;;;;6.05;4.50;;;14.70;99.90;;;;;;4962663;28;20045;-82
2023/08/05 04:57:58;;;;;;;5.25;4.00;;;14.70;99.90;;;;;;4963114;28;20022;-83
2023/08/05 05:00:25;;;;;;;5.50;4.72;;;14.70;99.90;;;;;;4963051;28;20023;-82
2023/08/05 05:02:51;;;;;;;5.30;4.80;;;14.70;99.90;;;;;;4963752;28;20066;-82
2023/08/05 05:05:17;;;;;;;5.82;4.70;;;14.70;99.90;;;;;;4963155;28;20179;-83
2023/08/05 05:07:43;;;;;;;7.05;4.50;;;14.70;99.90;;;;;;4961593;28;20027;-83
2023/08/05 05:10:08;;;;;;;6.22;4.97;;;14.80;99.90;;;;;;4961551;28;20027;-82
2023/08/05 05:12:34;;;;;;;5.47;4.93;;;14.80;99.90;;;;;;4959779;28;20034;-82
2023/08/05 05:15:00;;;;;;;6.13;5.32;;;14.80;99.90;;;;;;4961275;28;20078;-83
2023/08/05 05:17:25;;;;;;;7.15;4.60;;;14.80;99.90;;;;;;4961679;28;21541;-82
2023/08/05 05:19:51;;;;;;;5.85;5.03;;;14.80;99.90;;;;;;4961633;28;20034;-83
2023/08/05 05:22:17;;;;;;;6.53;4.72;;;14.80;99.90;;;;;;4962615;28;20063;-82
2023/08/05 05:24:44;;;;;;;5.68;4.30;;;14.90;99.90;;;;;;4962473;28;20640;-83
2023/08/05 05:27:13;;;;;;;10.00;5.25;;;14.90;99.90;;;;;;4961499;28;20117;-83
2023/08/05 05:29:39;;;;;;;7.65;5.03;;;14.90;99.90;;;;;;4962202;28;20380;-83
2023/08/05 05:32:05;;;;;;;7.80;4.93;;;14.90;99.90;;;;;;4963671;28;20105;-83
2023/08/05 05:34:31;;;;;;;6.15;4.60;;;14.90;99.90;;;;;;4964608;28;20098;-83
2023/08/05 05:36:56;;;;;;;5.82;4.38;;;15.00;99.90;;;;;;4963842;28;21424;-83
2023/08/05 05:39:22;;;;;;;7.32;5.18;;;15.00;99.90;;;;;;4965619;28;20034;-83
2023/08/05 05:41:47;;;;;;;5.47;4.75;;;15.00;99.90;;;;;;4968412;28;20023;-82
2023/08/05 05:44:13;;;;;;;6.10;4.75;;;15.00;99.90;;;;;;4965401;28;20023;-83
2023/08/05 05:46:39;;;;;;;5.85;4.45;;;15.10;99.90;;;;;;4964508;28;20059;-83
2023/08/05 05:49:04;;;;;;;5.72;4.47;;;15.10;99.90;;;;;;4962784;28;20736;-82
2023/08/05 05:51:30;;;;;;;5.85;4.00;;;15.10;99.90;;;;;;4961832;28;20153;-82
2023/08/05 05:53:57;;;;;;;7.82;4.60;;;15.20;99.90;;;;;;4962399;28;20038;-83
2023/08/05 05:56:23;;;;;;;4.80;3.88;;;15.20;99.90;;;;;;4962910;28;20713;-83
2023/08/05 05:58:48;;;;;;;5.55;4.20;;;15.20;99.90;;;;;;4963746;28;20027;-82
2023/08/05 06:01:14;;;;;;;6.10;3.83;;;15.20;99.90;;;;;;4963702;28;20027;-82
2023/08/05 06:03:42;;;;;;;5.05;4.15;;;15.30;99.90;;;;;;4964191;28;21401;-83
2023/08/05 06:06:07;;;;;;;4.80;4.30;;;15.30;99.90;;;;;;4961273;28;20112;-84
2023/08/05 06:08:34;;;;;;;5.70;4.07;;;15.30;99.90;;;;;;4962131;28;20487;-83
2023/08/05 06:11:03;;;;;;;5.68;3.95;;;15.40;99.90;;;;;;4963123;28;20045;-83
2023/08/05 06:13:29;;;;;;;5.72;4.03;;;15.30;99.90;;;;;;4962820;28;20027;-84
2023/08/05 06:15:54;;;;;;;4.75;3.85;;;15.40;99.90;;;;;;4963551;28;20034;-82
2023/08/05 06:18:20;;;;;;;5.07;3.88;;;15.40;99.90;;;;;;4962966;28;20032;-82
2023/08/05 06:20:49;;;;;;;7.65;4.60;;;15.40;99.90;;;;;;4963452;28;20368;-83
2023/08/05 06:23:15;;;;;;;6.00;3.92;;;15.40;99.90;;;;;;4961558;28;20054;-82
2023/08/05 06:25:41;;;;;;;7.22;4.20;;;15.40;99.90;;;;;;4961770;28;20039;-83
2023/08/05 06:28:08;;;;;;;9.05;4.07;;;15.40;99.90;;;;;;4962269;28;20050;-82
2023/08/05 06:30:36;;;;;;;4.80;4.30;;;15.40;99.90;;;;;;4957818;28;20019;-78
2023/08/05 06:33:02;;;;;;;6.40;4.50;;;15.40;99.90;;;;;;4957977;28;20038;-78
2023/08/05 06:35:28;;;;;;;5.07;4.30;;;15.40;99.90;;;;;;4957059;28;20387;-78
2023/08/05 06:37:53;;;;;;;6.35;4.28;;;15.40;99.90;;;;;;4955776;28;20026;-78
2023/08/05 06:40:19;;;;;;;6.55;3.70;;;15.40;99.90;;;;;;4957804;28;20026;-78
2023/08/05 06:42:44;;;;;;;4.93;3.72;;;15.50;99.90;;;;;;4957717;28;20027;-78
2023/08/05 06:45:10;;;;;;;6.68;3.72;;;15.50;99.90;;;;;;4956886;28;20401;-78
2023/08/05 06:47:36;;;;;;;6.82;4.22;;;15.60;99.90;;;;;;4959792;28;20094;-82
2023/08/05 06:50:05;;;;;;;5.72;3.92;;;15.60;99.90;;;;;;4961977;28;20555;-82
2023/08/05 06:52:31;;;;;;;6.82;3.80;;;15.60;99.90;;;;;;4962685;28;20035;-83
2023/08/05 06:55:00;;;;;;;4.60;3.85;;;15.60;99.90;;;;;;4962750;28;20094;-85
2023/08/05 06:57:26;;;;;;;7.38;4.13;;;15.70;99.90;;;;;;4962343;28;20034;-83
2023/08/05 06:59:51;;;;;;;9.27;3.55;;;15.70;99.90;;;;;;4961049;28;20023;-83
2023/08/05 07:02:17;;;;;;;6.07;3.50;;;15.70;99.90;;;;;;4961536;28;20038;-83
2023/08/05 07:04:43;;;;;;;6.43;4.40;;;15.70;99.90;;;;;;4961577;28;20030;-83
2023/08/05 07:07:08;;;;;;;4.78;3.60;;;15.80;99.90;;;;;;4957369;28;21244;-77
2023/08/05 07:09:34;;;;;;;5.03;3.40;;;15.80;99.90;;;;;;4962905;28;20383;-83
2023/08/05 07:11:59;;;;;;;8.02;3.95;;;15.80;99.90;;;;;;4961887;28;20121;-83
2023/08/05 07:14:25;;;;;;;5.95;3.47;;;15.80;99.90;;;;;;4959742;28;20090;-84
2023/08/05 07:16:51;;;;;;;5.88;3.88;;;15.80;99.90;;;;;;4960771;28;20079;-83
2023/08/05 07:19:17;;;;;;;5.68;3.47;;;15.80;99.90;;;;;;4961605;28;20077;-83
2023/08/05 07:21:42;;;;;;;8.43;3.70;;;15.80;99.90;;;;;;4964047;28;20045;-83
2023/08/05 07:24:08;;;;;;;5.30;4.00;;;15.80;99.90;;;;;;4963865;28;20042;-83
2023/08/05 07:26:33;;;;;;;5.13;3.80;;;15.80;99.90;;;;;;4962981;28;20047;-83
2023/08/05 07:28:59;;;;;;;4.43;3.70;;;15.70;99.90;;;;;;4964246;28;20053;-83
2023/08/05 07:31:25;;;;;;;6.28;3.40;;;15.70;99.90;;;;;;4964193;28;20046;-83
2023/08/05 07:33:51;;;;;;;4.55;3.65;;;15.70;99.90;;;;;;4964170;28;20035;-82
2023/08/05 07:36:17;;;;;;;5.07;3.65;;;15.70;99.90;;;;;;4963679;28;20034;-85
2023/08/05 07:38:45;;;;;;;5.88;3.70;;;15.70;99.90;;;;;;4964951;28;20030;-83
2023/08/05 07:41:12;;;;;;;7.57;3.42;;;15.70;99.90;;;;;;4962891;28;20057;-83
2023/08/05 07:43:38;;;;;;;7.13;3.83;;;15.80;99.90;;;;;;4963540;28;20428;-83
2023/08/05 07:46:05;;;;;;;5.88;3.72;;;15.80;99.90;;;;;;4960185;28;20036;-78
2023/08/05 07:48:35;;;;;;;4.18;3.28;;;15.80;99.90;;;;;;4956849;28;20082;-77
2023/08/05 07:51:01;;;;;;;5.20;3.20;;;15.90;99.90;;;;;;4955084;28;20030;-77
2023/08/05 07:53:29;;;;;;;8.10;3.58;;;15.90;99.90;;;;;;4955182;28;20031;-77
2023/08/05 07:55:55;;;;;;;4.80;3.50;;;15.90;99.90;;;;;;4956483;28;20022;-78
2023/08/05 07:58:21;;;;;;;6.70;4.45;;;16.00;99.90;;;;;;4955230;28;20089;-77
2023/08/05 08:00:46;;;;;;;4.15;3.25;;;16.10;99.90;;;;;;4957056;28;20053;-77
2023/08/05 08:03:12;;;;;;;6.13;4.13;;;16.10;99.90;;;;;;4955786;28;20512;-77
2023/08/05 08:05:38;;;;;;;5.97;3.38;;;16.20;99.90;;;;;;4956630;28;20040;-77
2023/08/05 08:08:03;;;;;;;5.60;3.72;;;16.30;99.90;;;;;;4956224;28;20065;-76
2023/08/05 08:10:29;;;;;;;8.38;3.90;;;16.40;99.90;;;;;;4955142;28;20721;-78
2023/08/05 08:12:54;;;;;;;6.15;3.80;;;16.40;99.90;;;;;;4955940;28;20038;-77
2023/08/05 08:15:21;;;;;;;6.18;3.13;;;16.40;99.90;;;;;;4955869;28;20033;-77
2023/08/05 08:17:46;;;;;;;7.35;3.90;;;16.50;99.90;;;;;;4955217;28;20033;-76
2023/08/05 08:20:12;;;;;;;5.28;3.50;;;16.60;99.90;;;;;;4956036;28;20035;-77
2023/08/05 08:22:38;;;;;;;4.22;3.17;;;16.60;99.90;;;;;;4957345;28;20027;-77
2023/08/05 08:25:03;;;;;;;4.15;3.20;;;16.70;99.90;;;;;;4953396;28;20032;-78
2023/08/05 08:27:29;;;;;;;5.43;3.40;;;16.80;99.90;;;;;;4953185;28;20034;-79
2023/08/05 08:29:54;;;;;;;4.93;3.15;;;16.90;99.90;;;;;;4955693;28;20026;-78
2023/08/05 08:32:20;;;;;;;7.32;3.78;;;17.00;99.90;;;;;;4955635;28;20070;-78
2023/08/05 08:34:45;;;;;;;5.93;3.55;;;17.10;99.90;;;;;;4955198;28;20049;-78
2023/08/05 08:37:11;;;;;;;6.53;3.80;;;17.20;99.90;;;;;;4954493;28;20027;-78
2023/08/05 08:39:37;;;;;;;5.32;3.45;;;17.30;99.90;;;;;;4954014;28;20042;-78
2023/08/05 08:42:02;;;;;;;5.95;3.35;;;17.40;99.90;;;;;;4955636;28;20522;-77
2023/08/05 08:44:29;;;;;;;6.30;3.30;;;17.50;99.90;;;;;;4956036;28;20038;-77
2023/08/05 08:46:55;;;;;;;5.60;3.10;;;17.70;99.90;;;;;;4954720;28;20061;-78
2023/08/05 08:49:21;;;;;;;5.60;3.13;;;17.80;99.90;;;;;;4954533;28;20039;-78
2023/08/05 08:51:47;;;;;;;5.13;3.17;;;17.90;99.90;;;;;;4955443;28;20074;-77
2023/08/05 08:54:17;;;;;;;5.30;3.08;;;18.00;99.90;;;;;;4954607;28;21049;-77
2023/08/05 08:56:42;;;;;;;4.95;2.90;;;18.10;99.90;;;;;;4954465;28;20409;-77
2023/08/05 08:59:08;;;;;;;4.43;3.30;;;18.10;99.90;;;;;;4955967;28;20031;-77
2023/08/05 09:01:39;;;;;;;5.10;2.85;;;18.10;99.90;;;;;;4956427;28;20033;-77
2023/08/05 09:04:07;;;;;;;6.63;3.30;;;18.10;99.90;;;;;;4958716;28;20035;-78
2023/08/05 09:06:32;;;;;;;4.72;2.83;;;18.10;99.90;;;;;;4957834;28;20058;-78
2023/08/05 09:08:58;;;;;;;4.45;2.75;;;18.10;99.90;;;;;;4958094;28;20503;-77
2023/08/05 09:11:24;;;;;;;6.88;2.92;;;18.10;99.90;;;;;;4959283;28;20057;-78
2023/08/05 09:13:52;;;;;;;5.10;3.20;;;18.10;99.90;;;;;;4958632;28;20484;-78
2023/08/05 09:16:17;;;;;;;4.55;3.10;;;18.10;99.90;;;;;;4959018;28;20030;-78
2023/08/05 09:18:53;;;;;;;4.07;2.95;;;18.10;99.90;;;;;;4957784;28;20035;-77
2023/08/05 09:21:23;;;;;;;5.90;3.10;;;18.10;99.90;;;;;;4958628;28;20031;-78
2023/08/05 09:23:48;;;;;;;4.72;3.30;;;18.10;99.90;;;;;;4959065;28;20176;-78
2023/08/05 09:26:14;;;;;;;5.53;2.90;;;18.20;99.90;;;;;;4959017;28;20613;-79
2023/08/05 09:28:39;;;;;;;5.65;3.17;;;18.20;99.90;;;;;;4958578;28;20046;-78
2023/08/05 09:31:16;;;;;;;4.30;2.53;;;18.30;99.90;;;;;;4955416;28;20026;-78
2023/08/05 09:33:42;;;;;;;4.75;2.92;;;18.40;99.90;;;;;;4958362;28;20119;-77
2023/08/05 09:36:12;;;;;;;4.22;3.67;;;18.60;99.90;;;;;;4961463;28;20466;-77
2023/08/05 09:38:39;;;;;;;5.57;2.70;;;18.80;99.90;;;;;;4961222;28;20418;-77
2023/08/05 09:41:07;;;;;;;4.07;2.50;;;19.00;99.90;;;;;;4957322;28;20030;-77
2023/08/05 09:43:38;;;;;;;4.35;2.78;;;19.10;99.90;;;;;;4958161;28;21249;-78
2023/08/05 09:46:06;;;;;;;4.45;2.90;;;19.20;99.90;;;;;;4958445;28;20045;-78
2023/08/05 09:48:43;;;;;;;4.78;2.95;;;19.30;99.90;;;;;;4956494;28;20037;-78
2023/08/05 09:51:17;;;;;;;6.68;3.00;;;19.40;99.90;;;;;;4957407;28;20033;-78
2023/08/05 09:53:46;;;;;;;5.05;2.65;;;19.60;99.90;;;;;;4958348;28;20043;-78
2023/08/05 09:56:12;;;;;;;6.78;2.67;;;19.60;99.90;;;;;;4957039;28;20179;-78
2023/08/05 09:58:38;;;;;;;4.43;2.70;;;19.60;99.90;;;;;;4958106;28;20109;-78
2023/08/05 10:01:07;;;;;;;4.93;2.65;;;19.50;99.90;;;;;;4958157;28;20030;-77
2023/08/05 10:03:40;;;;;;;3.55;2.50;;;19.50;99.90;;;;;;4956772;28;20118;-77
2023/08/05 10:06:06;;;;;;;6.10;2.50;;;19.50;99.90;;;;;;4958369;28;20408;-76
2023/08/05 10:08:40;;;;;;;4.50;2.38;;;19.40;99.90;;;;;;4958706;28;20070;-77
2023/08/05 10:11:06;;;;;;;3.75;2.47;;;19.30;99.90;;;;;;4957804;28;20038;-77
2023/08/05 10:13:44;;;;;;;4.85;2.85;;;19.20;99.90;;;;;;4956397;28;20046;-77
2023/08/05 10:16:10;;;;;;;5.20;3.15;;;19.20;99.90;;;;;;4959093;28;20027;-77
2023/08/05 10:18:37;;;;;;;4.28;3.13;;;19.20;99.90;;;;;;4957318;28;20557;-77
2023/08/05 10:21:05;;;;;;;4.95;2.80;;;19.30;99.90;;;;;;4957778;28;20030;-77
2023/08/05 10:23:34;;;;;;;7.78;2.80;;;19.40;99.90;;;;;;4957252;28;20552;-77
2023/08/05 10:26:02;;;;;;;3.60;2.50;;;19.40;99.90;;;;;;4957827;28;20027;-77
2023/08/05 10:28:33;;;;;;;4.85;2.60;;;19.50;99.90;;;;;;4958329;28;20023;-77
2023/08/05 10:31:03;;;;;;;2.92;2.40;;;19.60;99.90;;;;;;4957288;28;20046;-77
2023/08/05 10:33:28;;;;;;;4.82;2.75;;;19.60;99.90;;;;;;4958132;28;20049;-77
2023/08/05 10:36:02;;;;;;;3.35;2.75;;;19.60;99.90;;;;;;4958347;28;20026;-77
2023/08/05 10:38:27;;;;;;;3.10;2.80;;;19.70;99.90;;;;;;4957459;28;20054;-77
2023/08/05 10:41:02;;;;;;;4.53;2.63;;;19.60;99.90;;;;;;4958849;28;20126;-77
2023/08/05 10:43:31;;;;;;;4.15;2.90;;;19.70;99.90;;;;;;4955718;28;20074;-77
2023/08/05 10:45:59;;;;;;;5.13;3.10;;;19.70;99.90;;;;;;4956365;28;20125;-77
2023/08/05 10:48:38;;;;;;;3.85;2.90;;;19.70;99.90;;;;;;4956282;28;20110;-77
2023/08/05 10:51:27;;;;;;;4.43;2.83;;;19.80;99.90;;;;;;4956417;28;20039;-77
2023/08/05 10:53:55;;;;;;;4.30;2.97;;;19.80;99.90;;;;;;4956479;28;20100;-78
2023/08/05 10:56:32;;;;;;;3.65;2.88;;;19.70;99.90;;;;;;4957226;28;20073;-77
2023/08/05 10:59:01;;;;;;;5.47;3.13;;;19.70;99.90;;;;;;4957441;28;20114;-78
2023/08/05 11:01:55;;;;;;;4.32;2.70;;;19.60;99.90;;;;;;4956215;28;20027;-79
2023/08/05 11:04:31;;;;;;;7.30;2.80;;;19.40;99.90;;;;;;4955907;28;20031;-78
2023/08/05 11:07:00;;;;;;;3.30;3.00;;;19.30;99.90;;;;;;4956659;28;20030;-78
2023/08/05 11:09:37;;;;;;;4.70;3.08;;;19.20;99.90;;;;;;4958556;28;20103;-76
2023/08/05 11:12:03;;;;;;;5.20;2.85;;;19.10;99.90;;;;;;4961342;28;20058;-82
2023/08/05 11:14:29;;;;;;;5.72;3.35;;;19.00;99.90;;;;;;4959874;28;20125;-82
2023/08/05 11:17:07;;;;;;;6.00;3.25;;;18.90;99.90;;;;;;4958460;28;20044;-82
2023/08/05 11:19:52;;;;;;;5.55;3.00;;;18.90;99.90;;;;;;4961899;28;20072;-82
2023/08/05 11:22:27;;;;;;;4.65;3.60;;;18.80;99.90;;;;;;4960840;28;20026;-81
2023/08/05 11:25:01;;;;;;;4.70;3.53;;;18.70;99.90;;;;;;4960938;28;20057;-83
2023/08/05 11:27:39;;;;;;;6.57;3.53;;;18.70;99.90;;;;;;4959549;28;20038;-84
2023/08/05 11:30:15;;;;;;;4.10;3.25;;;18.70;99.90;;;;;;4960838;28;20030;-82
2023/08/05 11:32:52;;;;;;;5.50;3.22;;;18.70;99.90;;;;;;4960712;28;20073;-82
2023/08/05 11:35:18;;;;;;;5.03;3.33;;;18.70;99.90;;;;;;4961273;28;20214;-82
2023/08/05 11:37:43;;;;;;;4.88;3.10;;;18.80;99.90;;;;;;4960595;28;20478;-83
2023/08/05 11:40:09;;;;;;;5.03;3.30;;;18.80;99.90;;;;;;4961139;28;20029;-82
2023/08/05 11:42:41;;;;;;;6.35;3.38;;;18.80;99.90;;;;;;4961454;28;20031;-82
2023/08/05 11:45:16;;;;;;;6.22;2.80;;;18.80;99.90;;;;;;4961143;28;20571;-83
2023/08/05 11:47:42;;;;;;;;;;;18.80;99.90;;;;;;4961357;28;20077;-85
2023/08/05 11:50:09;;;;;;;4.18;2.58;;;18.80;99.90;;;;;;4959299;28;20303;-82
2023/08/05 11:52:36;;;;;;;4.20;2.50;;;18.80;99.90;;;;;;4958878;28;20102;-82
2023/08/05 11:55:04;;;;;;;3.85;2.40;;;18.90;99.90;;;;;;4957993;28;20210;-82
2023/08/05 11:57:29;;;;;;;3.63;2.45;;;18.90;99.90;;;;;;4958371;28;20494;-82
2023/08/05 12:00:02;;;;;;;5.97;2.67;;;18.80;99.90;;;;;;4958784;28;20022;-81
2023/08/05 12:02:27;;;;;;;4.57;2.90;;;18.80;99.90;;;;;;4960399;28;20430;-83
2023/08/05 12:05:03;;;;;;;3.42;2.42;;;18.80;99.90;;;;;;4960893;28;20019;-85
2023/08/05 12:07:29;;;;;;;6.10;2.80;;;18.80;99.90;;;;;;4957855;28;20035;-82
2023/08/05 12:10:11;;;;;;;5.05;2.40;;;18.80;99.90;;;;;;4957338;28;20793;-84
2023/08/05 12:12:38;;;;;;;2.85;2.20;;;18.80;99.90;;;;;;4956881;28;20075;-82
2023/08/05 12:15:25;;;;;;;6.03;2.35;;;18.80;99.90;;;;;;4955924;28;20354;-83
2023/08/05 12:17:55;;;;;;;3.88;2.30;;;18.90;99.90;;;;;;4959116;28;20041;-83
2023/08/05 12:20:28;;;;;;;4.25;2.45;;;18.90;99.90;;;;;;4959058;28;20031;-82
2023/08/05 12:22:55;;;;;;;5.10;2.88;;;19.00;99.90;;;;;;4959659;28;20030;-82
2023/08/05 12:25:21;;;;;;;3.95;2.40;;;19.00;99.90;;;;;;4962234;28;20066;-77
2023/08/05 12:27:47;;;;;;;5.72;2.30;;;19.00;99.90;;;;;;4955950;28;20034;-77
2023/08/05 12:30:14;;;;;;;6.57;2.22;;;19.00;99.90;;;;;;4954606;28;20650;-76
2023/08/05 12:32:40;;;;;;;4.15;2.45;;;19.00;99.90;;;;;;4954546;28;20031;-77
2023/08/05 12:35:08;;;;;;;4.75;2.20;;;19.00;99.90;;;;;;4953367;28;20061;-77
2023/08/05 12:37:36;;;;;;;4.97;2.20;;;19.00;99.90;;;;;;4957053;28;20501;-78
2023/08/05 12:40:04;;;;;;;3.47;2.47;;;19.00;99.90;;;;;;4959508;28;20083;-79
2023/08/05 12:42:31;;;;;;;3.42;2.20;;;18.90;99.90;;;;;;4960141;28;20031;-77
2023/08/05 12:45:00;;;;;;;3.78;2.13;;;18.90;99.90;;;;;;4958952;28;20624;-77
2023/08/05 12:47:26;;;;;;;4.20;2.13;;;18.80;99.90;;;;;;4958901;28;20023;-77